HRGA4: Little River, Horatio, AR

                                SHEF ID:       HRGA4     Little River near Horatio, AR
STATION TYPE: Stream Gauge
Regulating: Stage = 21.50, Flow = 17539

PRECIP STAGE RIV-FLOW BAT-LOAD
in ft cfs volt
Ccp-Rev Ccp-Rev Ccp-Rev Ccp-Rev
(America/Chicago)
04/26 00:00 0.00 7.11 1874 12.57
04/26 01:00 0.00 7.01 1803 12.55
04/26 02:00 0.00 6.96 1768 12.53
04/26 03:00 0.00 6.90 1726 12.50
04/26 04:00 0.00 6.89 1719 12.48
04/26 05:00 0.00 7.01 1803 12.46
04/26 06:00 0.00 7.30 2011 12.44
04/26 07:00 0.00 7.63 2256 12.43
04/26 08:00 0.00 7.92 2479 12.42
04/26 09:00 0.00 8.08 2604 12.44
04/26 10:00 0.00 8.20 2700 12.78
04/26 11:00 0.00 8.24 2732 13.21
04/26 12:00 0.00 8.24 2732 13.18
04/26 13:00 0.00 8.21 2708 13.09
04/26 14:00 0.00 8.17 2676 12.98
04/26 15:00 0.00 8.11 2628 12.93
04/26 16:00 0.00 8.06 2589 12.87
04/26 17:00 0.00 8.01 2549 12.84
04/26 18:00 0.00 7.93 2487 12.80
04/26 19:00 0.00 7.86 2432 12.77
04/26 20:00 0.00 7.81 2394 12.73
04/26 21:00 0.00 7.74 2340 12.62
04/26 22:00 0.00 7.69 2302 12.60
04/26 23:00 0.00 7.63 2256 12.57
Data processed at Mon 27Apr2026 04:10 GMT

NOTICE: If you are parsing this page

Please convert to using our Data API. Starting early 2026 we will be migrating to: https://water.usace.army.mil with modern pages rendered in JavaScript. When this migration completes you will no longer be able to scrape this page! CWMSDataAPI (CDA)

Timeseries IDs (TSIDs)

TSIDs used from left to right in the data table
HORA.Precip-Inc.Total.1Hour.1Hour.Ccp-Rev
HORA.Stage.Inst.1Hour.0.Ccp-Rev
HORA.Flow.Inst.1Hour.0.Ccp-Rev
HORA.Volt-Battery Load.Inst.1Hour.0.Ccp-Rev

                            

All information presented herein is the property of the government of the United States of America and may be revised or deleted at any time without prior notice. Dissemination of this information without the expressed written consent of the Public Affairs Office, Tulsa District U.S. Army Corps of Engineers is strictly prohibited. These data are gathered electronically and, as presented, have NOT undergone any form of quality control. These data are NOT guaranteed to be valid or correct.